Time;durP1;ratioP1;P1;durP2;ratioP2;P2;SDS_P1;SDS_P2;PMS_P1;PMS_P2;Temp;Humidity;BMP_temperature;BMP_pressure;BME280_temperature;BME280_humidity;BME280_pressure;Samples;Min_cycle;Max_cycle;Signal;HPM_P1;HPM_P2
2023/07/16 00:01:52;;;;;;;;;;;18.80;92.60;;;;;;5003125;28;19928;-78
2023/07/16 00:04:17;;;;;;;;;;;18.80;92.80;;;;;;5003247;28;19926;-77
2023/07/16 00:06:43;;;;;;;;;;;18.60;93.30;;;;;;5024064;28;19936;-78
2023/07/16 00:09:08;;;;;;;;;;;18.70;93.30;;;;;;5004945;28;19948;-78
2023/07/16 00:11:34;;;;;;;;;;;18.70;92.90;;;;;;5020635;28;19923;-81
2023/07/16 00:14:01;;;;;;;;;;;18.70;92.90;;;;;;5019181;28;20631;-78
2023/07/16 00:16:27;;;;;;;;;;;18.60;93.00;;;;;;5014706;28;20806;-79
2023/07/16 00:18:52;;;;;;;;;;;18.60;93.00;;;;;;4999823;28;19956;-79
2023/07/16 00:21:18;;;;;;;;;;;18.60;93.10;;;;;;5024442;28;19921;-78
2023/07/16 00:23:44;;;;;;;;;;;18.50;93.20;;;;;;5024946;28;19917;-77
2023/07/16 00:26:09;;;;;;;;;;;18.50;93.40;;;;;;5006415;28;20528;-78
2023/07/16 00:28:35;;;;;;;;;;;18.40;93.40;;;;;;5030343;28;19921;-80
2023/07/16 00:31:01;;;;;;;;;;;18.50;93.40;;;;;;5028405;28;19917;-84
2023/07/16 00:33:26;;;;;;;;;;;18.50;93.40;;;;;;5024476;28;20365;-82
2023/07/16 00:35:52;;;;;;;;;;;18.50;93.60;;;;;;5023789;28;19913;-81
2023/07/16 00:38:18;;;;;;;;;;;18.50;93.60;;;;;;5023947;28;20015;-81
2023/07/16 00:40:44;;;;;;;;;;;18.60;93.40;;;;;;5002400;28;20111;-81
2023/07/16 00:43:09;;;;;;;;;;;18.50;93.40;;;;;;5023333;28;20015;-81
2023/07/16 00:45:36;;;;;;;;;;;18.40;93.70;;;;;;5019786;28;19976;-83
2023/07/16 00:48:01;;;;;;;;;;;18.30;94.10;;;;;;5022662;28;19925;-82
2023/07/16 00:50:27;;;;;;;;;;;18.30;94.30;;;;;;5021202;28;19925;-81
2023/07/16 00:52:53;;;;;;;;;;;18.30;94.10;;;;;;5024203;28;19920;-80
2023/07/16 00:55:18;;;;;;;;;;;18.30;94.30;;;;;;5023176;28;19917;-81
2023/07/16 00:57:47;;;;;;;;;;;18.40;94.10;;;;;;5021930;28;19984;-81
2023/07/16 01:00:13;;;;;;;;;;;18.30;94.40;;;;;;5003234;28;19917;-80
2023/07/16 01:02:39;;;;;;;;;;;18.30;94.40;;;;;;4994627;28;20728;-81
2023/07/16 01:05:04;;;;;;;;;;;18.30;94.70;;;;;;5019508;28;19924;-81
2023/07/16 01:07:30;;;;;;;;;;;18.30;94.60;;;;;;5014122;28;19928;-81
2023/07/16 01:09:56;;;;;;;;;;;18.30;94.80;;;;;;5020899;28;19917;-82
2023/07/16 01:12:22;;;;;;;;;;;18.30;94.70;;;;;;5005283;28;19979;-80
2023/07/16 01:14:48;;;;;;;;;;;18.30;94.60;;;;;;5001318;28;19917;-80
2023/07/16 01:17:13;;;;;;;;;;;18.20;95.00;;;;;;5007740;28;20292;-81
2023/07/16 01:19:39;;;;;;;;;;;18.20;94.90;;;;;;4999979;28;19921;-80
2023/07/16 01:22:13;;;;;;;;;;;18.10;95.00;;;;;;5004919;28;19924;-80
2023/07/16 01:24:58;;;;;;;;;;;18.10;95.30;;;;;;5022902;28;19932;-80
2023/07/16 01:27:42;;;;;;;;;;;18.00;95.60;;;;;;5020679;28;19972;-80
2023/07/16 01:30:11;;;;;;;;;;;17.90;95.50;;;;;;5026715;28;20020;-80
2023/07/16 01:32:37;;;;;;;;;;;18.10;95.50;;;;;;5019520;28;20384;-81
2023/07/16 01:35:04;;;;;;;;;;;17.90;95.30;;;;;;5005152;28;19959;-81
2023/07/16 01:37:30;;;;;;;;;;;17.80;95.80;;;;;;5000727;28;19921;-81
2023/07/16 01:39:55;;;;;;;;;;;18.00;95.40;;;;;;5026899;28;19940;-81
2023/07/16 01:42:21;;;;;;;;;;;17.80;95.70;;;;;;5020554;28;19917;-82
2023/07/16 01:44:47;;;;;;;;;;;17.70;96.00;;;;;;5017641;28;19956;-82
2023/07/16 01:47:21;;;;;;;;;;;17.60;96.50;;;;;;4998813;28;20507;-80
2023/07/16 01:49:46;;;;;;;;;;;17.60;96.60;;;;;;5022877;28;19947;-80
2023/07/16 01:52:12;;;;;;;;;;;17.60;96.50;;;;;;5016242;28;20388;-80
2023/07/16 01:54:38;;;;;;;;;;;17.50;96.80;;;;;;5015531;28;19917;-80
2023/07/16 01:57:03;;;;;;;;;;;17.50;96.80;;;;;;5022847;28;19923;-80
2023/07/16 01:59:29;;;;;;;;;;;17.50;96.80;;;;;;5021156;28;20613;-82
2023/07/16 02:01:54;;;;;;;;;;;17.40;97.00;;;;;;5002544;28;19917;-81
2023/07/16 02:04:20;;;;;;;;;;;17.30;96.90;;;;;;5004952;28;19924;-80
2023/07/16 02:06:47;;;;;;;;;;;17.30;97.40;;;;;;5021796;28;20672;-80
2023/07/16 02:09:13;;;;;;;;;;;17.20;97.50;;;;;;5004941;28;19921;-80
2023/07/16 02:11:39;;;;;;;;;;;17.10;97.70;;;;;;5018060;28;19918;-80
2023/07/16 02:14:04;;;;;;;;;;;17.10;97.80;;;;;;5017009;28;19917;-81
2023/07/16 02:16:30;;;;;;;;;;;17.20;97.30;;;;;;5022446;28;19924;-80
2023/07/16 02:18:55;;;;;;;;;;;17.10;97.40;;;;;;5016552;28;19917;-78
2023/07/16 02:21:21;;;;;;;;;;;16.90;98.20;;;;;;5022679;28;19928;-79
2023/07/16 02:23:46;;;;;;;;;;;16.80;98.30;;;;;;5021097;28;19917;-82
2023/07/16 02:26:12;;;;;;;;;;;16.90;98.30;;;;;;5024037;28;19962;-80
2023/07/16 02:28:38;;;;;;;;;;;16.80;98.20;;;;;;5019784;28;19925;-80
2023/07/16 02:31:03;;;;;;;;;;;16.70;98.60;;;;;;5016791;28;19959;-80
2023/07/16 02:33:29;;;;;;;;;;;16.80;98.50;;;;;;5017606;28;19978;-81
2023/07/16 02:35:54;;;;;;;;;;;16.80;97.90;;;;;;4995198;28;19918;-82
2023/07/16 02:38:20;;;;;;;;;;;16.90;97.70;;;;;;5021983;28;20509;-82
2023/07/16 02:40:46;;;;;;;;;;;16.90;97.50;;;;;;5003427;28;19923;-81
2023/07/16 02:43:12;;;;;;;;;;;16.90;97.00;;;;;;5002467;28;20568;-81
2023/07/16 02:45:37;;;;;;;;;;;16.70;97.40;;;;;;4992184;28;19917;-81
2023/07/16 02:48:04;;;;;;;;;;;16.70;97.40;;;;;;5013029;28;19939;-81
2023/07/16 02:50:30;;;;;;;;;;;16.70;97.40;;;;;;5018540;28;20263;-81
2023/07/16 02:52:55;;;;;;;;;;;16.70;97.10;;;;;;5021473;28;19917;-80
2023/07/16 02:55:21;;;;;;;;;;;16.60;96.90;;;;;;5019752;28;19921;-81
2023/07/16 02:57:46;;;;;;;;;;;16.60;96.50;;;;;;5017995;28;19917;-79
2023/07/16 03:00:12;;;;;;;;;;;16.60;96.40;;;;;;5000565;28;19944;-79
2023/07/16 03:02:38;;;;;;;;;;;16.50;96.30;;;;;;5021931;28;20291;-82
2023/07/16 03:05:03;;;;;;;;;;;16.60;96.00;;;;;;5002499;28;20288;-79
2023/07/16 03:07:29;;;;;;;;;;;16.60;95.80;;;;;;5022026;28;20791;-80
2023/07/16 03:09:54;;;;;;;;;;;16.50;96.00;;;;;;5001281;28;19931;-81
2023/07/16 03:12:20;;;;;;;;;;;16.50;95.70;;;;;;5003896;28;19931;-81
2023/07/16 03:14:47;;;;;;;;;;;16.40;95.60;;;;;;5020420;28;19919;-82
2023/07/16 03:17:12;;;;;;;;;;;16.50;95.10;;;;;;5003788;28;19928;-81
2023/07/16 03:19:38;;;;;;;;;;;16.50;94.70;;;;;;5013379;28;20809;-80
2023/07/16 03:22:04;;;;;;;;;;;16.50;94.60;;;;;;5013713;28;20444;-79
2023/07/16 03:24:29;;;;;;;;;;;16.40;94.00;;;;;;5002247;28;20529;-80
2023/07/16 03:26:55;;;;;;;;;;;16.40;94.80;;;;;;5001458;28;20019;-79
2023/07/16 03:29:20;;;;;;;;;;;16.40;95.40;;;;;;5010582;28;19936;-79
2023/07/16 03:31:46;;;;;;;;;;;16.40;97.40;;;;;;5020606;28;19920;-80
2023/07/16 03:34:11;;;;;;;;;;;16.30;98.50;;;;;;5021336;28;19917;-80
2023/07/16 03:36:37;;;;;;;;;;;16.30;98.80;;;;;;5020721;28;19913;-80
2023/07/16 03:39:02;;;;;;;;;;;16.20;98.70;;;;;;5002387;28;19971;-80
2023/07/16 03:41:28;;;;;;;;;;;16.20;98.10;;;;;;5016340;28;19918;-80
2023/07/16 03:43:53;;;;;;;;;;;16.10;97.80;;;;;;5018861;28;19916;-79
2023/07/16 03:46:19;;;;;;;;;;;16.10;97.90;;;;;;5012620;28;19921;-79
2023/07/16 03:48:45;;;;;;;;;;;16.10;97.80;;;;;;5013686;28;19940;-79
2023/07/16 03:51:10;;;;;;;;;;;16.10;97.70;;;;;;5019880;28;21051;-79
2023/07/16 03:53:36;;;;;;;;;;;16.20;97.40;;;;;;5013112;28;19922;-79
2023/07/16 03:56:01;;;;;;;;;;;16.20;96.90;;;;;;5003639;28;19913;-79
2023/07/16 03:58:29;;;;;;;;;;;16.10;96.90;;;;;;5021150;28;19924;-79
2023/07/16 04:00:54;;;;;;;;;;;16.10;96.80;;;;;;5020128;28;19913;-80
2023/07/16 04:03:20;;;;;;;;;;;16.10;96.70;;;;;;5017679;28;19928;-80
2023/07/16 04:05:46;;;;;;;;;;;16.20;96.50;;;;;;5019394;28;19960;-79
2023/07/16 04:08:11;;;;;;;;;;;16.20;96.40;;;;;;5015730;28;19921;-79
2023/07/16 04:10:37;;;;;;;;;;;16.20;96.30;;;;;;5004633;28;19987;-78
2023/07/16 04:13:02;;;;;;;;;;;16.10;96.30;;;;;;5002256;28;19918;-81
2023/07/16 04:15:28;;;;;;;;;;;16.20;96.00;;;;;;5002194;28;19917;-82
2023/07/16 04:17:54;;;;;;;;;;;16.30;95.60;;;;;;5002311;28;20027;-81
2023/07/16 04:20:19;;;;;;;;;;;16.40;95.40;;;;;;5021622;28;20180;-80
2023/07/16 04:22:45;;;;;;;;;;;16.50;95.10;;;;;;5025198;28;19913;-80
2023/07/16 04:25:10;;;;;;;;;;;16.60;95.00;;;;;;5005307;28;20495;-80
2023/07/16 04:27:36;;;;;;;;;;;16.60;94.90;;;;;;5014745;28;19948;-79
2023/07/16 04:30:02;;;;;;;;;;;16.70;94.90;;;;;;5021691;28;19909;-80
2023/07/16 04:32:28;;;;;;;;;;;16.70;94.80;;;;;;5017191;28;20400;-80
2023/07/16 04:34:53;;;;;;;;;;;16.70;94.90;;;;;;5018807;28;20043;-80
2023/07/16 04:37:19;;;;;;;;;;;16.70;95.10;;;;;;5023867;28;20676;-80
2023/07/16 04:39:44;;;;;;;;;;;16.70;94.80;;;;;;5003279;28;19913;-80
2023/07/16 04:42:10;;;;;;;;;;;16.80;94.70;;;;;;5020805;28;19917;-80
2023/07/16 04:44:35;;;;;;;;;;;16.80;94.50;;;;;;5016075;28;20479;-82
2023/07/16 04:47:01;;;;;;;;;;;16.90;94.30;;;;;;5023738;28;20040;-81
2023/07/16 04:49:26;;;;;;;;;;;16.90;94.60;;;;;;5023173;28;19923;-81
2023/07/16 04:51:52;;;;;;;;;;;17.00;94.50;;;;;;5005377;28;19921;-80
2023/07/16 04:54:19;;;;;;;;;;;16.90;94.80;;;;;;5022865;28;19935;-80
2023/07/16 04:56:45;;;;;;;;;;;16.90;94.90;;;;;;5023389;28;19917;-82
2023/07/16 04:59:10;;;;;;;;;;;16.80;95.00;;;;;;5021265;28;20296;-81
2023/07/16 05:01:36;;;;;;;;;;;16.80;94.90;;;;;;5022721;28;19967;-81
2023/07/16 05:04:01;;;;;;;;;;;16.70;95.30;;;;;;5002173;28;19967;-81
2023/07/16 05:06:27;;;;;;;;;;;16.60;95.40;;;;;;5001418;28;19917;-81
2023/07/16 05:08:53;;;;;;;;;;;16.60;95.20;;;;;;5021571;28;20542;-81
2023/07/16 05:11:19;;;;;;;;;;;16.70;95.20;;;;;;5020004;28;19963;-80
2023/07/16 05:13:44;;;;;;;;;;;16.90;95.00;;;;;;5014764;28;20008;-82
2023/07/16 05:16:10;;;;;;;;;;;17.10;94.50;;;;;;5022609;28;19917;-82
2023/07/16 05:18:35;;;;;;;;;;;17.30;94.10;;;;;;5002416;28;19924;-82
2023/07/16 05:21:01;;;;;;;;;;;17.40;94.00;;;;;;4999824;28;19913;-82
2023/07/16 05:23:27;;;;;;;;;;;17.60;93.70;;;;;;5019376;28;20297;-82
2023/07/16 05:25:52;;;;;;;;;;;17.50;93.90;;;;;;5021967;28;19956;-82
2023/07/16 05:28:18;;;;;;;;;;;17.30;93.90;;;;;;5023334;28;20016;-83
2023/07/16 05:30:44;;;;;;;;;;;17.20;94.20;;;;;;5027231;28;20367;-82
2023/07/16 05:33:12;;;;;;;;;;;17.10;94.00;;;;;;5015274;28;19921;-81
2023/07/16 05:35:41;;;;;;;;;;;17.40;93.60;;;;;;5019118;28;20399;-81
2023/07/16 05:38:07;;;;;;;;;;;17.60;93.20;;;;;;5022651;28;20394;-80
2023/07/16 05:40:32;;;;;;;;;;;17.70;92.70;;;;;;5003628;28;19913;-81
2023/07/16 05:42:58;;;;;;;;;;;17.90;92.30;;;;;;5001647;28;19921;-81
2023/07/16 05:45:23;;;;;;;;;;;18.10;91.70;;;;;;5020359;28;20008;-81
2023/07/16 05:47:49;;;;;;;;;;;18.20;91.30;;;;;;5022579;28;19936;-81
2023/07/16 05:50:14;;;;;;;;;;;18.20;91.40;;;;;;5022744;28;19924;-82
2023/07/16 05:52:40;;;;;;;;;;;18.30;90.80;;;;;;5021930;28;20463;-80
2023/07/16 05:55:06;;;;;;;;;;;18.60;90.20;;;;;;5022868;28;20000;-79
2023/07/16 05:57:31;;;;;;;;;;;18.30;90.30;;;;;;5019070;28;19921;-79
2023/07/16 05:59:57;;;;;;;;;;;18.50;90.40;;;;;;5015873;28;19917;-80
2023/07/16 06:02:22;;;;;;;;;;;18.30;90.80;;;;;;4997404;28;20687;-80
2023/07/16 06:04:48;;;;;;;;;;;18.20;90.90;;;;;;5001936;28;19936;-79
2023/07/16 06:07:13;;;;;;;;;;;18.10;91.70;;;;;;5010733;28;19921;-80
2023/07/16 06:09:39;;;;;;;;;;;18.00;91.50;;;;;;5017981;28;19921;-79
2023/07/16 06:12:05;;;;;;;;;;;18.00;91.80;;;;;;5023041;28;19913;-79
2023/07/16 06:14:30;;;;;;;;;;;18.30;91.30;;;;;;4995040;28;19914;-80
2023/07/16 06:16:56;;;;;;;;;;;18.60;90.80;;;;;;5021915;28;19917;-81
2023/07/16 06:19:21;;;;;;;;;;;18.80;91.00;;;;;;5021850;28;20055;-80
2023/07/16 06:21:47;;;;;;;;;;;19.00;90.00;;;;;;4995530;28;20369;-80
2023/07/16 06:24:12;;;;;;;;;;;19.20;87.80;;;;;;5017916;28;19965;-80
2023/07/16 06:26:38;;;;;;;;;;;19.20;87.80;;;;;;5022295;28;19913;-81
2023/07/16 06:29:04;;;;;;;;;;;19.30;88.70;;;;;;5003687;28;19925;-79
2023/07/16 06:31:29;;;;;;;;;;;19.50;86.30;;;;;;5021547;28;19971;-79
2023/07/16 06:33:55;;;;;;;;;;;19.40;85.40;;;;;;5002367;28;20378;-80
2023/07/16 06:36:20;;;;;;;;;;;19.40;85.30;;;;;;5003072;28;19959;-79
2023/07/16 06:38:46;;;;;;;;;;;19.50;84.60;;;;;;5020880;28;20292;-79
2023/07/16 06:41:12;;;;;;;;;;;19.50;84.70;;;;;;5001960;28;20017;-80
2023/07/16 06:43:37;;;;;;;;;;;19.80;83.00;;;;;;5019461;28;19960;-78
2023/07/16 06:46:03;;;;;;;;;;;19.70;82.90;;;;;;5013100;28;19913;-77
2023/07/16 06:48:29;;;;;;;;;;;19.70;81.90;;;;;;5022584;28;19936;-79
2023/07/16 06:50:54;;;;;;;;;;;20.10;81.90;;;;;;5018496;28;19925;-80
2023/07/16 06:53:20;;;;;;;;;;;20.20;80.50;;;;;;5014968;28;19928;-80
2023/07/16 06:55:47;;;;;;;;;;;20.50;78.70;;;;;;5021566;28;19917;-79
2023/07/16 06:58:13;;;;;;;;;;;20.60;77.80;;;;;;5021970;28;20564;-80
2023/07/16 07:00:39;;;;;;;;;;;20.60;78.00;;;;;;5003067;28;19928;-79
2023/07/16 07:03:04;;;;;;;;;;;20.90;77.20;;;;;;5022204;28;19922;-78
2023/07/16 07:05:30;;;;;;;;;;;21.50;74.60;;;;;;5021939;28;19921;-80
2023/07/16 07:07:55;;;;;;;;;;;21.70;73.70;;;;;;5022254;28;19932;-80
2023/07/16 07:10:21;;;;;;;;;;;21.40;75.60;;;;;;5020629;28;19917;-81
2023/07/16 07:12:46;;;;;;;;;;;21.30;74.10;;;;;;5022048;28;19917;-80
2023/07/16 07:15:12;;;;;;;;;;;22.10;71.80;;;;;;5021787;28;20023;-79
2023/07/16 07:17:38;;;;;;;;;;;22.20;72.60;;;;;;5002753;28;19959;-80
2023/07/16 07:20:04;;;;;;;;;;;22.00;71.90;;;;;;5014620;28;19948;-80
2023/07/16 07:22:30;;;;;;;;;;;21.80;71.50;;;;;;5018528;28;19975;-80
2023/07/16 07:24:56;;;;;;;;;;;22.40;70.10;;;;;;5001696;28;19968;-79
2023/07/16 07:27:22;;;;;;;;;;;22.60;69.40;;;;;;5003768;28;19925;-78
2023/07/16 07:29:51;;;;;;;;;;;23.20;67.00;;;;;;5017905;28;20594;-79
2023/07/16 07:32:18;;;;;;;;;;;23.70;65.70;;;;;;5002871;28;19928;-78
2023/07/16 07:34:44;;;;;;;;;;;23.80;64.80;;;;;;5020718;28;19917;-78
2023/07/16 07:37:10;;;;;;;;;;;23.90;65.00;;;;;;5021013;28;19921;-78
2023/07/16 07:39:35;;;;;;;;;;;24.30;62.70;;;;;;5020075;28;20292;-78
2023/07/16 07:42:01;;;;;;;;;;;25.20;61.40;;;;;;5002276;28;20451;-79
2023/07/16 07:44:28;;;;;;;;;;;28.50;54.90;;;;;;5019426;28;20289;-79
2023/07/16 07:46:54;;;;;;;;;;;30.90;51.00;;;;;;5025838;28;19913;-80
2023/07/16 07:49:19;;;;;;;;;;;30.80;48.10;;;;;;5024831;28;20406;-78
2023/07/16 07:51:47;;;;;;;;;;;31.80;47.10;;;;;;5006089;28;20281;-80
2023/07/16 07:54:12;;;;;;;;;;;30.40;47.40;;;;;;5007104;28;19924;-78
2023/07/16 07:56:38;;;;;;;;;;;31.80;45.00;;;;;;5013972;28;20303;-78
2023/07/16 07:59:04;;;;;;;;;;;32.70;45.10;;;;;;5007813;28;19959;-80
2023/07/16 08:01:30;;;;;;;;;;;32.50;44.10;;;;;;5026111;28;20020;-79
2023/07/16 08:03:55;;;;;;;;;;;31.50;45.00;;;;;;5005404;28;19917;-79
2023/07/16 08:06:21;;;;;;;;;;;31.70;45.20;;;;;;5007542;28;19917;-80
2023/07/16 08:08:46;;;;;;;;;;;32.90;43.00;;;;;;5023409;28;19933;-78
2023/07/16 08:11:12;;;;;;;;;;;34.00;41.60;;;;;;5021630;28;19967;-79
2023/07/16 08:13:37;;;;;;;;;;;34.00;40.40;;;;;;5024234;28;19917;-79
2023/07/16 08:16:03;;;;;;;;;;;34.00;40.50;;;;;;5023171;28;20836;-79
2023/07/16 08:18:29;;;;;;;;;;;30.30;43.30;;;;;;5002768;28;20014;-79
2023/07/16 08:20:55;;;;;;;;;;;28.70;48.20;;;;;;5006300;28;19996;-80
2023/07/16 08:23:20;;;;;;;;;;;28.40;49.10;;;;;;5007268;28;20027;-79
2023/07/16 08:25:46;;;;;;;;;;;27.90;47.90;;;;;;5023434;28;20343;-79
2023/07/16 08:28:12;;;;;;;;;;;27.50;48.30;;;;;;5024529;28;19925;-79
2023/07/16 08:30:37;;;;;;;;;;;27.40;48.40;;;;;;5009465;28;19924;-79
2023/07/16 08:33:03;;;;;;;;;;;28.30;48.60;;;;;;5004832;28;19917;-78
2023/07/16 08:35:28;;;;;;;;;;;28.90;48.60;;;;;;5006417;28;19928;-80
2023/07/16 08:37:54;;;;;;;;;;;28.70;47.50;;;;;;5016175;28;19921;-78
2023/07/16 08:40:20;;;;;;;;;;;29.20;45.50;;;;;;5006647;28;19921;-77
2023/07/16 08:42:46;;;;;;;;;;;29.50;45.60;;;;;;5022641;28;19917;-78
2023/07/16 08:45:14;;;;;;;;;;;29.60;46.10;;;;;;5017853;28;19952;-78
2023/07/16 08:47:39;;;;;;;;;;;28.70;48.80;;;;;;5006508;28;19922;-79
2023/07/16 08:50:05;;;;;;;;;;;28.40;47.90;;;;;;5000268;28;19933;-79
2023/07/16 08:52:31;;;;;;;;;;;27.90;52.00;;;;;;5019234;28;19918;-78
2023/07/16 08:54:56;;;;;;;;;;;28.50;49.10;;;;;;5000046;28;19944;-76
2023/07/16 08:57:22;;;;;;;;;;;29.00;49.10;;;;;;4998313;28;19914;-79
2023/07/16 08:59:49;;;;;;;;;;;29.10;49.30;;;;;;5003506;28;20369;-78
2023/07/16 09:02:16;;;;;;;;;;;29.00;49.00;;;;;;5001065;28;19918;-79
2023/07/16 09:04:42;;;;;;;;;;;28.20;49.10;;;;;;5000620;28;19918;-79
2023/07/16 09:07:07;;;;;;;;;;;28.40;49.40;;;;;;5014459;28;19932;-78
2023/07/16 09:09:33;;;;;;;;;;;29.20;49.40;;;;;;5018340;28;19923;-79
2023/07/16 09:11:59;;;;;;;;;;;29.60;47.30;;;;;;5017827;28;19924;-78
2023/07/16 09:14:24;;;;;;;;;;;29.60;46.50;;;;;;5001499;28;19917;-80
2023/07/16 09:16:50;;;;;;;;;;;29.80;46.30;;;;;;5000745;28;19929;-79
2023/07/16 09:19:18;;;;;;;;;;;29.90;47.10;;;;;;4999486;28;19971;-78
2023/07/16 09:21:49;;;;;;;;;;;31.20;45.30;;;;;;5017531;28;19924;-79
2023/07/16 09:24:15;;;;;;;;;;;33.70;40.60;;;;;;5012572;28;20610;-80
2023/07/16 09:26:48;;;;;;;;;;;32.70;40.30;;;;;;4999526;28;19945;-80
2023/07/16 09:29:13;;;;;;;;;;;31.90;41.30;;;;;;4994895;28;19945;-79
2023/07/16 09:31:50;;;;;;;;;;;31.90;39.20;;;;;;5010203;28;20641;-79
2023/07/16 09:34:16;;;;;;;;;;;35.20;38.00;;;;;;5000055;28;19917;-79
2023/07/16 09:36:41;;;;;;;;;;;36.50;38.20;;;;;;5000339;28;19924;-79
2023/07/16 09:39:07;;;;;;;;;;;34.50;38.80;;;;;;5001662;28;19959;-79
2023/07/16 09:41:32;;;;;;;;;;;33.30;40.90;;;;;;5002730;28;20003;-81
2023/07/16 09:43:59;;;;;;;;;;;33.10;39.70;;;;;;5001800;28;20450;-80
2023/07/16 09:46:24;;;;;;;;;;;34.00;38.40;;;;;;5002131;28;19922;-80
2023/07/16 09:48:50;;;;;;;;;;;35.60;36.40;;;;;;4999555;28;19936;-81
2023/07/16 09:51:16;;;;;;;;;;;33.20;42.10;;;;;;5017123;28;19925;-79
2023/07/16 09:53:43;;;;;;;;;;;32.10;42.90;;;;;;4999407;28;20020;-79
2023/07/16 09:56:10;;;;;;;;;;;31.20;41.80;;;;;;5001666;28;20411;-80
2023/07/16 09:58:35;;;;;;;;;;;31.40;40.00;;;;;;4992432;28;19945;-81
2023/07/16 10:01:01;;;;;;;;;;;32.80;39.80;;;;;;4999870;28;20020;-78
2023/07/16 10:03:27;;;;;;;;;;;30.90;36.90;;;;;;5000110;28;19918;-80
2023/07/16 10:05:52;;;;;;;;;;;33.60;40.50;;;;;;5014276;28;20017;-78
2023/07/16 10:08:19;;;;;;;;;;;34.40;38.80;;;;;;5000210;28;19925;-79
2023/07/16 10:10:48;;;;;;;;;;;34.80;39.30;;;;;;5014859;28;20000;-81
2023/07/16 10:13:14;;;;;;;;;;;33.10;39.90;;;;;;4998196;28;19917;-77
2023/07/16 10:15:50;;;;;;;;;;;33.30;38.80;;;;;;5001542;28;19922;-79
2023/07/16 10:18:22;;;;;;;;;;;33.50;39.00;;;;;;5001509;28;20100;-80
2023/07/16 10:20:48;;;;;;;;;;;32.70;41.10;;;;;;5002577;28;19953;-78
2023/07/16 10:23:14;;;;;;;;;;;33.80;39.50;;;;;;4996619;28;20051;-79
2023/07/16 10:25:40;;;;;;;;;;;33.30;38.60;;;;;;5019597;28;20384;-80
2023/07/16 10:28:06;;;;;;;;;;;32.50;43.20;;;;;;4994368;28;20037;-79
2023/07/16 10:30:33;;;;;;;;;;;32.20;42.70;;;;;;5016472;28;20039;-83
2023/07/16 10:33:02;;;;;;;;;;;32.20;44.70;;;;;;5000166;28;19972;-79
2023/07/16 10:35:27;;;;;;;;;;;32.00;40.30;;;;;;4999652;28;19917;-82
2023/07/16 10:37:54;;;;;;;;;;;31.40;41.40;;;;;;5001124;28;19944;-79
2023/07/16 10:40:19;;;;;;;;;;;33.00;39.50;;;;;;4999838;28;20029;-81
2023/07/16 10:42:46;;;;;;;;;;;33.40;38.70;;;;;;5000973;28;19917;-80
2023/07/16 10:45:12;;;;;;;;;;;32.20;42.70;;;;;;4998583;28;19921;-79
2023/07/16 10:47:40;;;;;;;;;;;31.40;46.00;;;;;;4994785;28;21210;-80
2023/07/16 10:50:07;;;;;;;;;;;30.20;39.40;;;;;;5006685;28;19952;-80
2023/07/16 10:52:33;;;;;;;;;;;30.00;41.30;;;;;;5021027;28;19913;-82
2023/07/16 10:54:59;;;;;;;;;;;31.40;44.50;;;;;;5002256;28;20422;-80
2023/07/16 10:57:25;;;;;;;;;;;32.00;44.90;;;;;;5021169;28;20468;-81
2023/07/16 10:59:51;;;;;;;;;;;30.50;42.40;;;;;;4998255;28;19928;-81
2023/07/16 11:02:17;;;;;;;;;;;31.50;44.80;;;;;;5007615;28;19917;-80
2023/07/16 11:04:43;;;;;;;;;;;29.90;39.70;;;;;;5003889;28;19936;-80
2023/07/16 11:07:09;;;;;;;;;;;30.80;39.50;;;;;;5008692;28;20392;-82
2023/07/16 11:09:44;;;;;;;;;;;29.90;38.30;;;;;;5015751;28;19917;-81
2023/07/16 11:12:13;;;;;;;;;;;30.60;38.40;;;;;;5022667;28;19913;-82
2023/07/16 11:14:42;;;;;;;;;;;30.30;36.30;;;;;;5009313;28;19921;-81
2023/07/16 11:17:08;;;;;;;;;;;31.00;38.20;;;;;;5014737;28;19920;-81
2023/07/16 11:19:35;;;;;;;;;;;30.60;39.80;;;;;;5019054;28;19917;-83
2023/07/16 11:22:01;;;;;;;;;;;30.50;37.80;;;;;;5009293;28;19924;-82
2023/07/16 11:24:27;;;;;;;;;;;30.60;38.10;;;;;;5025474;28;20305;-81
2023/07/16 11:26:59;;;;;;;;;;;30.00;36.90;;;;;;5012355;28;19917;-81
2023/07/16 11:29:33;;;;;;;;;;;30.20;40.60;;;;;;5024971;28;19921;-80
2023/07/16 11:31:59;;;;;;;;;;;29.80;41.60;;;;;;5012072;28;20189;-80
2023/07/16 11:34:24;;;;;;;;;;;30.30;43.90;;;;;;5028040;28;19979;-82
2023/07/16 11:36:50;;;;;;;;;;;30.20;40.80;;;;;;5023630;28;20411;-83
2023/07/16 11:39:16;;;;;;;;;;;29.50;43.20;;;;;;5013793;28;20644;-80
2023/07/16 11:41:41;;;;;;;;;;;29.50;43.40;;;;;;4998225;28;19991;-81
2023/07/16 11:44:07;;;;;;;;;;;28.90;42.60;;;;;;5018001;28;20027;-80
2023/07/16 11:46:33;;;;;;;;;;;29.00;46.00;;;;;;5011593;28;19913;-80
2023/07/16 11:48:59;;;;;;;;;;;29.50;43.20;;;;;;5021386;28;19920;-79
2023/07/16 11:51:25;;;;;;;;;;;28.70;40.00;;;;;;5027949;28;19925;-81
2023/07/16 11:53:50;;;;;;;;;;;28.20;42.60;;;;;;5018505;28;20288;-81
2023/07/16 11:56:16;;;;;;;;;;;28.10;42.30;;;;;;5010959;28;19920;-81
2023/07/16 11:58:42;;;;;;;;;;;27.30;41.70;;;;;;5005424;28;19913;-80
2023/07/16 12:01:07;;;;;;;;;;;27.10;43.90;;;;;;5004857;28;20384;-81
2023/07/16 12:03:33;;;;;;;;;;;26.30;45.20;;;;;;5004263;28;20424;-81
2023/07/16 12:05:59;;;;;;;;;;;26.00;45.80;;;;;;5002204;28;19921;-80
2023/07/16 12:08:24;;;;;;;;;;;26.60;48.00;;;;;;5000775;28;19921;-81
2023/07/16 12:10:50;;;;;;;;;;;26.70;49.50;;;;;;5001836;28;19940;-82
2023/07/16 12:13:15;;;;;;;;;;;26.60;49.10;;;;;;4998698;28;19921;-81
2023/07/16 12:15:41;;;;;;;;;;;26.10;46.70;;;;;;4996490;28;19913;-80
2023/07/16 12:18:07;;;;;;;;;;;26.10;48.10;;;;;;4991910;28;20444;-80
2023/07/16 12:20:33;;;;;;;;;;;26.20;49.40;;;;;;5021205;28;19917;-81
2023/07/16 12:22:59;;;;;;;;;;;25.80;48.40;;;;;;4996667;28;19961;-81
2023/07/16 12:25:24;;;;;;;;;;;26.00;51.30;;;;;;5001212;28;20024;-79
2023/07/16 12:27:50;;;;;;;;;;;25.70;49.40;;;;;;5005593;28;20028;-80
2023/07/16 12:30:15;;;;;;;;;;;25.50;48.40;;;;;;5021589;28;19914;-81
2023/07/16 12:32:41;;;;;;;;;;;25.60;47.90;;;;;;5014186;28;19924;-80
2023/07/16 12:35:07;;;;;;;;;;;25.30;46.70;;;;;;4995619;28;19963;-80
2023/07/16 12:37:32;;;;;;;;;;;24.60;45.60;;;;;;5013238;28;19913;-80
2023/07/16 12:39:58;;;;;;;;;;;24.90;47.30;;;;;;5006841;28;20007;-80
2023/07/16 12:42:23;;;;;;;;;;;24.70;44.80;;;;;;5016790;28;19913;-80
2023/07/16 12:44:52;;;;;;;;;;;25.20;50.40;;;;;;5005416;28;19921;-79
2023/07/16 12:47:17;;;;;;;;;;;25.20;48.10;;;;;;5005554;28;19945;-79
2023/07/16 12:49:43;;;;;;;;;;;24.60;50.10;;;;;;4996516;28;20052;-80
2023/07/16 12:52:08;;;;;;;;;;;24.50;51.30;;;;;;5024349;28;19956;-81
2023/07/16 12:54:34;;;;;;;;;;;24.70;51.60;;;;;;5021720;28;20352;-80
2023/07/16 12:57:00;;;;;;;;;;;24.90;48.60;;;;;;5020686;28;19917;-81
2023/07/16 12:59:25;;;;;;;;;;;25.00;53.00;;;;;;5024207;28;19991;-80
2023/07/16 13:01:51;;;;;;;;;;;25.10;50.40;;;;;;5023905;28;20575;-81
2023/07/16 13:04:17;;;;;;;;;;;25.10;55.00;;;;;;5023045;28;20725;-80
2023/07/16 13:06:44;;;;;;;;;;;25.30;53.70;;;;;;5025058;28;19917;-80
2023/07/16 13:09:10;;;;;;;;;;;25.20;55.30;;;;;;5022917;28;19955;-82
2023/07/16 13:11:36;;;;;;;;;;;25.10;56.70;;;;;;5020694;28;19913;-82
2023/07/16 13:14:02;;;;;;;;;;;25.00;55.60;;;;;;5016544;28;19913;-80
2023/07/16 13:16:28;;;;;;;;;;;25.20;56.10;;;;;;5020329;28;20463;-81
2023/07/16 13:18:53;;;;;;;;;;;24.90;52.40;;;;;;5023571;28;19913;-81
2023/07/16 13:21:19;;;;;;;;;;;25.00;52.60;;;;;;5017829;28;19914;-82
2023/07/16 13:23:44;;;;;;;;;;;24.80;51.70;;;;;;5015601;28;19924;-81
2023/07/16 13:26:10;;;;;;;;;;;24.90;53.10;;;;;;5012993;28;20479;-81
2023/07/16 13:28:35;;;;;;;;;;;24.90;52.50;;;;;;4993871;28;20478;-81
2023/07/16 13:31:01;;;;;;;;;;;25.10;55.20;;;;;;5028796;28;20355;-81
2023/07/16 13:33:26;;;;;;;;;;;25.00;53.60;;;;;;5005340;28;19959;-82
2023/07/16 13:35:52;;;;;;;;;;;25.00;53.80;;;;;;5023290;28;19978;-81
2023/07/16 13:38:18;;;;;;;;;;;24.70;51.30;;;;;;5022758;28;19914;-80
2023/07/16 13:40:43;;;;;;;;;;;24.90;55.90;;;;;;5021889;28;19924;-80
2023/07/16 13:43:09;;;;;;;;;;;24.70;54.10;;;;;;5021400;28;19997;-80
2023/07/16 13:45:34;;;;;;;;;;;24.80;55.70;;;;;;5023008;28;19921;-80
2023/07/16 13:48:00;;;;;;;;;;;24.60;50.40;;;;;;5023981;28;19921;-81
2023/07/16 13:50:25;;;;;;;;;;;24.70;57.70;;;;;;5012196;28;19925;-80
2023/07/16 13:52:52;;;;;;;;;;;24.80;53.50;;;;;;5022761;28;19913;-81
2023/07/16 13:55:17;;;;;;;;;;;24.70;52.80;;;;;;5022504;28;19928;-81
2023/07/16 13:57:43;;;;;;;;;;;24.40;51.60;;;;;;5023535;28;19913;-79
2023/07/16 14:00:12;;;;;;;;;;;24.60;52.70;;;;;;5003760;28;19967;-80
2023/07/16 14:02:37;;;;;;;;;;;24.60;52.60;;;;;;5021050;28;19956;-80
2023/07/16 14:05:04;;;;;;;;;;;24.30;50.50;;;;;;5022557;28;20004;-80
2023/07/16 14:07:30;;;;;;;;;;;24.30;51.30;;;;;;5023496;28;19918;-80
2023/07/16 14:09:55;;;;;;;;;;;24.40;52.90;;;;;;5019042;28;19920;-81